sensor_id;sensor_type;location;lat;lon;timestamp;pressure;altitude;pressure_sealevel;temperature;humidity
36062;BME280;22123;52.412;20.970;2023-10-13T00:00:08;100693.34;;;5.67;100.00
36062;BME280;22123;52.412;20.970;2023-10-13T00:02:34;100732.50;;;5.88;100.00
36062;BME280;22123;52.412;20.970;2023-10-13T00:05:00;100711.19;;;5.67;100.00
36062;BME280;22123;52.412;20.970;2023-10-13T00:07:26;100679.91;;;5.48;100.00
36062;BME280;22123;52.412;20.970;2023-10-13T00:09:51;100707.03;;;5.53;100.00
36062;BME280;22123;52.412;20.970;2023-10-13T00:12:17;100714.03;;;5.44;100.00
36062;BME280;22123;52.412;20.970;2023-10-13T00:14:43;100713.34;;;5.42;100.00
36062;BME280;22123;52.412;20.970;2023-10-13T00:17:09;100721.63;;;5.39;100.00
36062;BME280;22123;52.412;20.970;2023-10-13T00:19:37;100749.06;;;5.51;100.00
36062;BME280;22123;52.412;20.970;2023-10-13T00:22:08;100708.59;;;5.25;100.00
36062;BME280;22123;52.412;20.970;2023-10-13T00:24:34;100726.19;;;5.27;100.00
36062;BME280;22123;52.412;20.970;2023-10-13T00:27:00;100721.75;;;5.16;100.00
36062;BME280;22123;52.412;20.970;2023-10-13T00:29:26;100702.56;;;5.01;100.00
36062;BME280;22123;52.412;20.970;2023-10-13T00:31:52;100747.53;;;5.27;100.00
36062;BME280;22123;52.412;20.970;2023-10-13T00:34:18;100712.38;;;5.01;100.00
36062;BME280;22123;52.412;20.970;2023-10-13T00:36:44;100742.25;;;5.16;100.00
36062;BME280;22123;52.412;20.970;2023-10-13T00:39:10;100755.78;;;5.24;100.00
36062;BME280;22123;52.412;20.970;2023-10-13T00:41:36;100754.47;;;5.18;100.00
36062;BME280;22123;52.412;20.970;2023-10-13T00:44:01;100759.81;;;5.18;100.00
36062;BME280;22123;52.412;20.970;2023-10-13T00:46:27;100696.25;;;4.81;100.00
36062;BME280;22123;52.412;20.970;2023-10-13T00:48:53;100739.31;;;4.98;100.00
36062;BME280;22123;52.412;20.970;2023-10-13T00:51:19;100717.72;;;4.80;100.00
36062;BME280;22123;52.412;20.970;2023-10-13T00:53:45;100733.59;;;4.81;100.00
36062;BME280;22123;52.412;20.970;2023-10-13T00:56:11;100767.69;;;4.99;100.00
36062;BME280;22123;52.412;20.970;2023-10-13T00:58:37;100744.00;;;4.84;100.00
36062;BME280;22123;52.412;20.970;2023-10-13T01:01:03;100731.66;;;4.72;100.00
36062;BME280;22123;52.412;20.970;2023-10-13T01:03:29;100776.22;;;4.93;100.00
36062;BME280;22123;52.412;20.970;2023-10-13T01:05:56;100736.69;;;4.65;100.00
36062;BME280;22123;52.412;20.970;2023-10-13T01:08:32;100728.06;;;4.62;100.00
36062;BME280;22123;52.412;20.970;2023-10-13T01:10:58;100763.31;;;4.77;100.00
36062;BME280;22123;52.412;20.970;2023-10-13T01:13:24;100785.22;;;4.80;100.00
36062;BME280;22123;52.412;20.970;2023-10-13T01:15:50;100744.13;;;4.50;100.00
36062;BME280;22123;52.412;20.970;2023-10-13T01:18:16;100774.47;;;4.70;100.00
36062;BME280;22123;52.412;20.970;2023-10-13T01:20:42;100744.22;;;4.49;100.00
36062;BME280;22123;52.412;20.970;2023-10-13T01:23:11;100737.63;;;4.43;100.00
36062;BME280;22123;52.412;20.970;2023-10-13T01:25:37;100753.94;;;4.50;100.00
36062;BME280;22123;52.412;20.970;2023-10-13T01:28:03;100748.50;;;4.40;100.00
36062;BME280;22123;52.412;20.970;2023-10-13T01:30:29;100749.50;;;4.39;100.00
36062;BME280;22123;52.412;20.970;2023-10-13T01:32:54;100754.34;;;4.34;100.00
36062;BME280;22123;52.412;20.970;2023-10-13T01:35:20;100754.94;;;4.38;100.00
36062;BME280;22123;52.412;20.970;2023-10-13T01:37:46;100753.88;;;4.29;100.00
36062;BME280;22123;52.412;20.970;2023-10-13T01:40:12;100775.91;;;4.42;100.00
36062;BME280;22123;52.412;20.970;2023-10-13T01:42:39;100766.72;;;4.35;100.00
36062;BME280;22123;52.412;20.970;2023-10-13T01:45:05;100788.97;;;4.45;100.00
36062;BME280;22123;52.412;20.970;2023-10-13T01:47:33;100727.38;;;4.05;100.00
36062;BME280;22123;52.412;20.970;2023-10-13T01:49:59;100752.06;;;4.18;100.00
36062;BME280;22123;52.412;20.970;2023-10-13T01:52:25;100747.13;;;4.13;100.00
36062;BME280;22123;52.412;20.970;2023-10-13T01:54:51;100774.72;;;4.24;100.00
36062;BME280;22123;52.412;20.970;2023-10-13T01:57:17;100735.00;;;3.98;100.00
36062;BME280;22123;52.412;20.970;2023-10-13T01:59:47;100725.47;;;3.95;100.00
36062;BME280;22123;52.412;20.970;2023-10-13T02:02:14;100770.72;;;4.18;100.00
36062;BME280;22123;52.412;20.970;2023-10-13T02:04:40;100718.44;;;3.83;100.00
36062;BME280;22123;52.412;20.970;2023-10-13T02:07:06;100775.81;;;4.10;100.00
36062;BME280;22123;52.412;20.970;2023-10-13T02:09:32;100759.25;;;3.95;100.00
36062;BME280;22123;52.412;20.970;2023-10-13T02:11:58;100751.75;;;3.89;100.00
36062;BME280;22123;52.412;20.970;2023-10-13T02:14:24;100729.84;;;3.74;100.00
36062;BME280;22123;52.412;20.970;2023-10-13T02:16:50;100754.03;;;3.82;100.00
36062;BME280;22123;52.412;20.970;2023-10-13T02:19:16;100764.31;;;3.87;100.00
36062;BME280;22123;52.412;20.970;2023-10-13T02:21:42;100790.84;;;3.99;100.00
36062;BME280;22123;52.412;20.970;2023-10-13T02:24:08;100740.50;;;3.74;100.00
36062;BME280;22123;52.412;20.970;2023-10-13T02:26:34;100789.28;;;3.97;100.00
36062;BME280;22123;52.412;20.970;2023-10-13T02:29:01;100744.50;;;3.68;100.00
36062;BME280;22123;52.412;20.970;2023-10-13T02:31:27;100781.28;;;3.86;100.00
36062;BME280;22123;52.412;20.970;2023-10-13T02:33:53;100738.66;;;3.63;100.00
36062;BME280;22123;52.412;20.970;2023-10-13T02:36:19;100743.41;;;3.59;100.00
36062;BME280;22123;52.412;20.970;2023-10-13T02:38:45;100748.59;;;3.61;100.00
36062;BME280;22123;52.412;20.970;2023-10-13T02:41:16;100798.00;;;3.88;100.00
36062;BME280;22123;52.412;20.970;2023-10-13T02:43:42;100754.28;;;3.68;100.00
36062;BME280;22123;52.412;20.970;2023-10-13T02:46:08;100754.53;;;3.64;100.00
36062;BME280;22123;52.412;20.970;2023-10-13T02:48:34;100736.75;;;3.54;100.00
36062;BME280;22123;52.412;20.970;2023-10-13T02:50:59;100761.56;;;3.65;100.00
36062;BME280;22123;52.412;20.970;2023-10-13T02:53:25;100762.88;;;3.60;100.00
36062;BME280;22123;52.412;20.970;2023-10-13T02:55:52;100789.97;;;3.76;100.00
36062;BME280;22123;52.412;20.970;2023-10-13T02:58:18;100756.91;;;3.56;100.00
36062;BME280;22123;52.412;20.970;2023-10-13T03:00:45;100773.41;;;3.73;100.00
36062;BME280;22123;52.412;20.970;2023-10-13T03:03:10;100741.06;;;3.55;100.00
36062;BME280;22123;52.412;20.970;2023-10-13T03:05:36;100741.69;;;3.47;100.00
36062;BME280;22123;52.412;20.970;2023-10-13T03:08:02;100747.84;;;3.47;100.00
36062;BME280;22123;52.412;20.970;2023-10-13T03:10:28;100732.09;;;3.44;100.00
36062;BME280;22123;52.412;20.970;2023-10-13T03:12:54;100775.56;;;3.68;100.00
36062;BME280;22123;52.412;20.970;2023-10-13T03:15:20;100767.84;;;3.64;100.00
36062;BME280;22123;52.412;20.970;2023-10-13T03:17:47;100783.09;;;3.74;100.00
36062;BME280;22123;52.412;20.970;2023-10-13T03:20:15;100749.31;;;3.52;100.00
36062;BME280;22123;52.412;20.970;2023-10-13T03:22:42;100778.50;;;3.76;100.00
36062;BME280;22123;52.412;20.970;2023-10-13T03:25:08;100744.84;;;3.52;100.00
36062;BME280;22123;52.412;20.970;2023-10-13T03:27:34;100753.16;;;3.47;100.00
36062;BME280;22123;52.412;20.970;2023-10-13T03:30:00;100742.03;;;3.42;100.00
36062;BME280;22123;52.412;20.970;2023-10-13T03:32:26;100786.34;;;3.66;100.00
36062;BME280;22123;52.412;20.970;2023-10-13T03:34:52;100788.75;;;3.69;100.00
36062;BME280;22123;52.412;20.970;2023-10-13T03:37:19;100738.19;;;3.46;100.00
36062;BME280;22123;52.412;20.970;2023-10-13T03:39:45;100778.63;;;3.74;100.00
36062;BME280;22123;52.412;20.970;2023-10-13T03:42:11;100753.53;;;3.54;100.00
36062;BME280;22123;52.412;20.970;2023-10-13T03:44:37;100743.38;;;3.48;100.00
36062;BME280;22123;52.412;20.970;2023-10-13T03:47:03;100719.66;;;3.34;100.00
36062;BME280;22123;52.412;20.970;2023-10-13T03:49:29;100752.94;;;3.51;100.00
36062;BME280;22123;52.412;20.970;2023-10-13T03:51:55;100731.63;;;3.39;100.00
36062;BME280;22123;52.412;20.970;2023-10-13T03:54:21;100727.28;;;3.38;100.00
36062;BME280;22123;52.412;20.970;2023-10-13T03:56:46;100761.16;;;3.59;100.00
36062;BME280;22123;52.412;20.970;2023-10-13T03:59:12;100779.22;;;3.67;100.00
36062;BME280;22123;52.412;20.970;2023-10-13T04:01:39;100782.72;;;3.67;100.00
36062;BME280;22123;52.412;20.970;2023-10-13T04:04:04;100735.63;;;3.34;100.00
36062;BME280;22123;52.412;20.970;2023-10-13T04:06:31;100739.13;;;3.34;100.00
36062;BME280;22123;52.412;20.970;2023-10-13T04:08:57;100779.56;;;3.51;100.00
36062;BME280;22123;52.412;20.970;2023-10-13T04:11:23;100781.59;;;3.47;100.00
36062;BME280;22123;52.412;20.970;2023-10-13T04:13:49;100739.22;;;3.21;100.00
36062;BME280;22123;52.412;20.970;2023-10-13T04:16:24;100748.31;;;3.30;100.00
36062;BME280;22123;52.412;20.970;2023-10-13T04:18:50;100737.31;;;3.23;100.00
36062;BME280;22123;52.412;20.970;2023-10-13T04:21:16;100738.13;;;3.24;100.00
36062;BME280;22123;52.412;20.970;2023-10-13T04:23:41;100765.38;;;3.39;100.00
36062;BME280;22123;52.412;20.970;2023-10-13T04:26:07;100756.78;;;3.35;100.00
36062;BME280;22123;52.412;20.970;2023-10-13T04:28:33;100724.81;;;3.12;100.00
36062;BME280;22123;52.412;20.970;2023-10-13T04:30:59;100742.22;;;3.17;100.00
36062;BME280;22123;52.412;20.970;2023-10-13T04:33:29;100789.00;;;3.43;100.00
36062;BME280;22123;52.412;20.970;2023-10-13T04:35:55;100740.53;;;3.16;100.00
36062;BME280;22123;52.412;20.970;2023-10-13T04:38:21;100750.59;;;3.23;100.00
36062;BME280;22123;52.412;20.970;2023-10-13T04:40:47;100800.47;;;3.44;100.00
36062;BME280;22123;52.412;20.970;2023-10-13T04:43:13;100781.09;;;3.30;100.00
36062;BME280;22123;52.412;20.970;2023-10-13T04:45:38;100805.56;;;3.47;100.00
36062;BME280;22123;52.412;20.970;2023-10-13T04:48:05;100779.16;;;3.33;100.00
36062;BME280;22123;52.412;20.970;2023-10-13T04:50:31;100761.00;;;3.26;100.00
36062;BME280;22123;52.412;20.970;2023-10-13T04:52:56;100787.53;;;3.39;100.00
36062;BME280;22123;52.412;20.970;2023-10-13T04:55:22;100772.00;;;3.22;100.00
36062;BME280;22123;52.412;20.970;2023-10-13T04:57:48;100794.16;;;3.34;100.00
36062;BME280;22123;52.412;20.970;2023-10-13T05:00:14;100760.38;;;3.11;100.00
36062;BME280;22123;52.412;20.970;2023-10-13T05:02:44;100792.81;;;3.28;100.00
36062;BME280;22123;52.412;20.970;2023-10-13T05:05:13;100799.47;;;3.22;100.00
36062;BME280;22123;52.412;20.970;2023-10-13T05:07:40;100814.34;;;3.25;100.00
36062;BME280;22123;52.412;20.970;2023-10-13T05:10:06;100804.06;;;3.20;100.00
36062;BME280;22123;52.412;20.970;2023-10-13T05:12:32;100803.06;;;3.21;100.00
36062;BME280;22123;52.412;20.970;2023-10-13T05:14:58;100759.72;;;2.96;100.00
36062;BME280;22123;52.412;20.970;2023-10-13T05:17:23;100814.00;;;3.29;100.00
36062;BME280;22123;52.412;20.970;2023-10-13T05:19:49;100808.28;;;3.23;100.00
36062;BME280;22123;52.412;20.970;2023-10-13T05:22:15;100779.97;;;3.10;100.00
36062;BME280;22123;52.412;20.970;2023-10-13T05:24:41;100779.72;;;3.13;100.00
36062;BME280;22123;52.412;20.970;2023-10-13T05:27:07;100814.84;;;3.30;100.00
36062;BME280;22123;52.412;20.970;2023-10-13T05:29:33;100818.25;;;3.32;100.00
36062;BME280;22123;52.412;20.970;2023-10-13T05:31:59;100827.56;;;3.38;100.00
36062;BME280;22123;52.412;20.970;2023-10-13T05:34:25;100826.47;;;3.40;100.00
36062;BME280;22123;52.412;20.970;2023-10-13T05:36:51;100833.03;;;3.47;100.00
36062;BME280;22123;52.412;20.970;2023-10-13T05:39:17;100798.75;;;3.31;100.00
36062;BME280;22123;52.412;20.970;2023-10-13T05:41:43;100773.69;;;3.23;100.00
36062;BME280;22123;52.412;20.970;2023-10-13T05:44:09;100794.16;;;3.34;100.00
36062;BME280;22123;52.412;20.970;2023-10-13T05:46:35;100793.53;;;3.30;100.00
36062;BME280;22123;52.412;20.970;2023-10-13T05:49:02;100839.13;;;3.61;100.00
36062;BME280;22123;52.412;20.970;2023-10-13T05:51:29;100824.72;;;3.52;100.00
36062;BME280;22123;52.412;20.970;2023-10-13T05:53:55;100827.59;;;3.49;100.00
36062;BME280;22123;52.412;20.970;2023-10-13T05:56:21;100828.19;;;3.41;100.00
36062;BME280;22123;52.412;20.970;2023-10-13T05:58:47;100847.22;;;3.59;100.00
36062;BME280;22123;52.412;20.970;2023-10-13T06:01:14;100808.56;;;3.31;100.00
36062;BME280;22123;52.412;20.970;2023-10-13T06:03:40;100866.09;;;3.68;100.00
36062;BME280;22123;52.412;20.970;2023-10-13T06:06:07;100810.16;;;3.45;100.00
36062;BME280;22123;52.412;20.970;2023-10-13T06:08:33;100831.88;;;3.74;100.00
36062;BME280;22123;52.412;20.970;2023-10-13T06:11:02;100813.84;;;3.67;100.00
36062;BME280;22123;52.412;20.970;2023-10-13T06:13:29;100828.16;;;3.88;100.00
36062;BME280;22123;52.412;20.970;2023-10-13T06:15:55;100813.72;;;3.91;100.00
36062;BME280;22123;52.412;20.970;2023-10-13T06:18:20;100839.66;;;4.11;100.00
36062;BME280;22123;52.412;20.970;2023-10-13T06:20:46;100825.34;;;4.12;100.00
36062;BME280;22123;52.412;20.970;2023-10-13T06:23:12;100779.22;;;3.89;100.00
36062;BME280;22123;52.412;20.970;2023-10-13T06:25:38;100838.94;;;4.32;100.00
36062;BME280;22123;52.412;20.970;2023-10-13T06:28:04;100838.44;;;4.38;100.00
36062;BME280;22123;52.412;20.970;2023-10-13T06:30:30;100870.75;;;4.67;100.00
36062;BME280;22123;52.412;20.970;2023-10-13T06:32:56;100841.19;;;4.59;100.00
36062;BME280;22123;52.412;20.970;2023-10-13T06:35:22;100851.81;;;4.70;100.00
36062;BME280;22123;52.412;20.970;2023-10-13T06:37:47;100833.38;;;4.79;100.00
36062;BME280;22123;52.412;20.970;2023-10-13T06:40:13;100821.59;;;4.93;100.00
36062;BME280;22123;52.412;20.970;2023-10-13T06:42:39;100832.63;;;5.20;100.00
36062;BME280;22123;52.412;20.970;2023-10-13T06:45:05;100843.06;;;5.45;100.00
36062;BME280;22123;52.412;20.970;2023-10-13T06:47:31;100845.41;;;5.59;100.00
36062;BME280;22123;52.412;20.970;2023-10-13T06:49:57;100827.03;;;5.66;100.00
36062;BME280;22123;52.412;20.970;2023-10-13T06:52:23;100863.56;;;6.07;100.00
36062;BME280;22123;52.412;20.970;2023-10-13T06:54:53;100850.97;;;6.19;100.00
36062;BME280;22123;52.412;20.970;2023-10-13T06:57:19;100867.78;;;6.41;100.00
36062;BME280;22123;52.412;20.970;2023-10-13T06:59:45;100844.69;;;6.40;100.00
36062;BME280;22123;52.412;20.970;2023-10-13T07:02:11;100876.59;;;6.63;100.00
36062;BME280;22123;52.412;20.970;2023-10-13T07:04:37;100860.38;;;6.54;100.00
36062;BME280;22123;52.412;20.970;2023-10-13T07:07:03;100831.63;;;6.47;100.00
36062;BME280;22123;52.412;20.970;2023-10-13T07:09:29;100864.53;;;6.78;100.00
36062;BME280;22123;52.412;20.970;2023-10-13T07:11:58;100826.75;;;6.61;100.00
36062;BME280;22123;52.412;20.970;2023-10-13T07:14:24;100813.66;;;6.58;100.00
36062;BME280;22123;52.412;20.970;2023-10-13T07:16:59;100846.22;;;6.83;100.00
36062;BME280;22123;52.412;20.970;2023-10-13T07:19:29;100851.88;;;7.00;100.00
36062;BME280;22123;52.412;20.970;2023-10-13T07:21:59;100851.03;;;7.09;100.00
36062;BME280;22123;52.412;20.970;2023-10-13T07:24:28;100823.84;;;6.94;100.00
36062;BME280;22123;52.412;20.970;2023-10-13T07:26:54;100855.16;;;7.23;100.00
36062;BME280;22123;52.412;20.970;2023-10-13T07:29:20;100827.63;;;7.11;100.00
36062;BME280;22123;52.412;20.970;2023-10-13T07:31:46;100861.19;;;7.35;100.00
36062;BME280;22123;52.412;20.970;2023-10-13T07:34:12;100831.00;;;7.32;100.00
36062;BME280;22123;52.412;20.970;2023-10-13T07:36:39;100801.84;;;7.29;100.00
36062;BME280;22123;52.412;20.970;2023-10-13T07:39:05;100804.22;;;7.42;100.00
36062;BME280;22123;52.412;20.970;2023-10-13T07:41:31;100830.97;;;7.72;100.00
36062;BME280;22123;52.412;20.970;2023-10-13T07:43:57;100819.91;;;7.84;100.00
36062;BME280;22123;52.412;20.970;2023-10-13T07:46:23;100803.50;;;7.97;100.00
36062;BME280;22123;52.412;20.970;2023-10-13T07:48:49;100843.44;;;8.38;100.00
36062;BME280;22123;52.412;20.970;2023-10-13T07:51:15;100817.25;;;8.50;100.00
36062;BME280;22123;52.412;20.970;2023-10-13T07:53:41;100819.94;;;8.78;100.00
36062;BME280;22123;52.412;20.970;2023-10-13T07:56:07;100797.84;;;8.84;100.00
36062;BME280;22123;52.412;20.970;2023-10-13T07:58:33;100810.66;;;9.26;100.00
36062;BME280;22123;52.412;20.970;2023-10-13T08:00:59;100773.50;;;9.21;100.00
36062;BME280;22123;52.412;20.970;2023-10-13T08:03:25;100785.22;;;9.38;100.00
36062;BME280;22123;52.412;20.970;2023-10-13T08:05:53;100771.94;;;9.37;100.00
36062;BME280;22123;52.412;20.970;2023-10-13T08:08:19;100795.28;;;9.63;100.00
36062;BME280;22123;52.412;20.970;2023-10-13T08:10:45;100807.06;;;9.88;100.00
36062;BME280;22123;52.412;20.970;2023-10-13T08:13:11;100766.84;;;9.78;100.00
36062;BME280;22123;52.412;20.970;2023-10-13T08:15:37;100784.56;;;9.97;100.00
36062;BME280;22123;52.412;20.970;2023-10-13T08:18:03;100770.78;;;10.00;100.00
36062;BME280;22123;52.412;20.970;2023-10-13T08:20:29;100804.38;;;10.31;100.00
36062;BME280;22123;52.412;20.970;2023-10-13T08:22:55;100784.34;;;10.25;100.00
36062;BME280;22123;52.412;20.970;2023-10-13T08:25:20;100787.09;;;10.33;100.00
36062;BME280;22123;52.412;20.970;2023-10-13T08:27:47;100789.84;;;10.41;100.00
36062;BME280;22123;52.412;20.970;2023-10-13T08:30:13;100774.19;;;10.45;100.00
36062;BME280;22123;52.412;20.970;2023-10-13T08:32:38;100770.38;;;10.64;100.00
36062;BME280;22123;52.412;20.970;2023-10-13T08:35:04;100777.84;;;10.95;100.00
36062;BME280;22123;52.412;20.970;2023-10-13T08:37:32;100746.00;;;10.99;100.00
36062;BME280;22123;52.412;20.970;2023-10-13T08:39:59;100783.72;;;11.31;100.00
36062;BME280;22123;52.412;20.970;2023-10-13T08:42:28;100778.31;;;11.48;100.00
36062;BME280;22123;52.412;20.970;2023-10-13T08:44:55;100763.31;;;11.45;100.00
36062;BME280;22123;52.412;20.970;2023-10-13T08:47:21;100771.22;;;11.63;100.00
36062;BME280;22123;52.412;20.970;2023-10-13T08:49:47;100774.41;;;11.67;100.00
36062;BME280;22123;52.412;20.970;2023-10-13T08:52:14;100786.84;;;11.84;100.00
36062;BME280;22123;52.412;20.970;2023-10-13T08:54:41;100761.25;;;11.64;100.00
36062;BME280;22123;52.412;20.970;2023-10-13T08:57:07;100793.78;;;11.79;100.00
36062;BME280;22123;52.412;20.970;2023-10-13T08:59:33;100747.81;;;11.47;100.00
36062;BME280;22123;52.412;20.970;2023-10-13T09:01:59;100761.09;;;11.65;100.00
36062;BME280;22123;52.412;20.970;2023-10-13T09:04:25;100787.00;;;11.83;100.00
36062;BME280;22123;52.412;20.970;2023-10-13T09:06:52;100779.59;;;11.85;100.00
36062;BME280;22123;52.412;20.970;2023-10-13T09:09:18;100754.50;;;11.76;100.00
36062;BME280;22123;52.412;20.970;2023-10-13T09:11:44;100758.03;;;11.85;100.00
36062;BME280;22123;52.412;20.970;2023-10-13T09:14:13;100781.59;;;11.91;100.00
36062;BME280;22123;52.412;20.970;2023-10-13T09:16:39;100788.00;;;11.90;100.00
36062;BME280;22123;52.412;20.970;2023-10-13T09:19:07;100743.75;;;11.60;100.00
36062;BME280;22123;52.412;20.970;2023-10-13T09:21:39;100751.81;;;11.68;100.00
36062;BME280;22123;52.412;20.970;2023-10-13T09:24:08;100748.13;;;11.69;100.00
36062;BME280;22123;52.412;20.970;2023-10-13T09:26:34;100762.06;;;11.81;100.00
36062;BME280;22123;52.412;20.970;2023-10-13T09:29:00;100765.09;;;11.94;100.00
36062;BME280;22123;52.412;20.970;2023-10-13T09:31:26;100773.28;;;12.09;100.00
36062;BME280;22123;52.412;20.970;2023-10-13T09:33:52;100762.22;;;11.96;100.00
36062;BME280;22123;52.412;20.970;2023-10-13T09:36:17;100765.78;;;11.96;100.00
36062;BME280;22123;52.412;20.970;2023-10-13T09:38:43;100739.81;;;11.95;100.00
36062;BME280;22123;52.412;20.970;2023-10-13T09:41:09;100738.09;;;12.03;100.00
36062;BME280;22123;52.412;20.970;2023-10-13T09:43:35;100726.41;;;12.10;100.00
36062;BME280;22123;52.412;20.970;2023-10-13T09:46:02;100730.53;;;12.29;100.00
36062;BME280;22123;52.412;20.970;2023-10-13T09:48:38;100758.44;;;12.53;100.00
36062;BME280;22123;52.412;20.970;2023-10-13T09:51:04;100734.66;;;12.48;100.00
36062;BME280;22123;52.412;20.970;2023-10-13T09:53:31;100757.13;;;12.72;100.00
36062;BME280;22123;52.412;20.970;2023-10-13T09:56:02;100716.81;;;12.62;100.00
36062;BME280;22123;52.412;20.970;2023-10-13T09:58:29;100706.34;;;12.67;100.00
36062;BME280;22123;52.412;20.970;2023-10-13T10:00:57;100729.88;;;12.82;100.00
36062;BME280;22123;52.412;20.970;2023-10-13T10:03:25;100713.22;;;12.70;100.00
36062;BME280;22123;52.412;20.970;2023-10-13T10:06:01;100710.19;;;12.73;100.00
36062;BME280;22123;52.412;20.970;2023-10-13T10:08:27;100724.19;;;12.92;100.00
36062;BME280;22123;52.412;20.970;2023-10-13T10:16:50;100725.88;;;13.16;100.00
36062;BME280;22123;52.412;20.970;2023-10-13T10:19:22;100713.28;;;13.23;100.00
36062;BME280;22123;52.412;20.970;2023-10-13T10:21:48;100687.00;;;13.32;100.00
36062;BME280;22123;52.412;20.970;2023-10-13T10:24:15;100694.34;;;13.46;100.00
36062;BME280;22123;52.412;20.970;2023-10-13T10:26:52;100685.75;;;13.57;100.00
36062;BME280;22123;52.412;20.970;2023-10-13T10:29:18;100678.19;;;13.83;100.00
36062;BME280;22123;52.412;20.970;2023-10-13T10:31:44;100667.88;;;14.08;100.00
36062;BME280;22123;52.412;20.970;2023-10-13T10:34:16;100676.44;;;14.26;100.00
36062;BME280;22123;52.412;20.970;2023-10-13T10:36:42;100696.41;;;14.62;100.00
36062;BME280;22123;52.412;20.970;2023-10-13T10:39:09;100658.31;;;14.49;100.00
36062;BME280;22123;52.412;20.970;2023-10-13T10:41:34;100662.97;;;14.55;100.00
36062;BME280;22123;52.412;20.970;2023-10-13T10:44:00;100653.94;;;14.48;100.00
36062;BME280;22123;52.412;20.970;2023-10-13T10:46:28;100676.66;;;14.68;100.00
36062;BME280;22123;52.412;20.970;2023-10-13T10:48:57;100669.03;;;14.78;100.00
36062;BME280;22123;52.412;20.970;2023-10-13T10:51:23;100621.00;;;14.66;100.00
36062;BME280;22123;52.412;20.970;2023-10-13T10:53:49;100659.41;;;14.98;100.00
36062;BME280;22123;52.412;20.970;2023-10-13T10:56:17;100656.72;;;14.98;100.00
36062;BME280;22123;52.412;20.970;2023-10-13T10:58:43;100652.03;;;14.91;100.00
36062;BME280;22123;52.412;20.970;2023-10-13T11:01:09;100635.69;;;14.78;100.00
36062;BME280;22123;52.412;20.970;2023-10-13T11:03:36;100633.25;;;14.83;100.00
36062;BME280;22123;52.412;20.970;2023-10-13T11:06:02;100625.31;;;14.82;100.00
36062;BME280;22123;52.412;20.970;2023-10-13T11:08:28;100595.81;;;14.72;100.00
36062;BME280;22123;52.412;20.970;2023-10-13T11:10:53;100642.06;;;14.92;100.00
36062;BME280;22123;52.412;20.970;2023-10-13T11:13:19;100614.47;;;14.82;100.00
36062;BME280;22123;52.412;20.970;2023-10-13T11:15:45;100635.66;;;15.00;100.00
36062;BME280;22123;52.412;20.970;2023-10-13T11:18:11;100609.06;;;14.88;100.00
36062;BME280;22123;52.412;20.970;2023-10-13T11:20:41;100622.78;;;15.08;100.00
36062;BME280;22123;52.412;20.970;2023-10-13T11:23:13;100601.34;;;15.13;100.00
36062;BME280;22123;52.412;20.970;2023-10-13T11:25:39;100614.53;;;15.58;100.00
36062;BME280;22123;52.412;20.970;2023-10-13T11:28:12;100608.41;;;15.85;100.00
36062;BME280;22123;52.412;20.970;2023-10-13T11:30:38;100594.84;;;15.98;100.00
36062;BME280;22123;52.412;20.970;2023-10-13T11:33:05;100608.47;;;16.25;100.00
36062;BME280;22123;52.412;20.970;2023-10-13T11:35:35;100587.56;;;16.05;100.00
36062;BME280;22123;52.412;20.970;2023-10-13T11:38:01;100577.50;;;15.92;100.00
36062;BME280;22123;52.412;20.970;2023-10-13T11:40:27;100598.00;;;16.08;100.00
36062;BME280;22123;52.412;20.970;2023-10-13T11:42:54;100577.72;;;16.04;100.00
36062;BME280;22123;52.412;20.970;2023-10-13T11:45:19;100585.69;;;16.19;100.00
36062;BME280;22123;52.412;20.970;2023-10-13T11:47:45;100528.00;;;15.97;100.00
36062;BME280;22123;52.412;20.970;2023-10-13T11:50:11;100582.38;;;16.30;100.00
36062;BME280;22123;52.412;20.970;2023-10-13T11:52:37;100582.16;;;16.32;100.00
36062;BME280;22123;52.412;20.970;2023-10-13T11:55:02;100585.31;;;16.36;100.00
36062;BME280;22123;52.412;20.970;2023-10-13T11:57:28;100564.59;;;16.21;100.00
36062;BME280;22123;52.412;20.970;2023-10-13T11:59:54;100567.31;;;16.28;100.00
36062;BME280;22123;52.412;20.970;2023-10-13T12:02:20;100569.41;;;16.39;100.00
36062;BME280;22123;52.412;20.970;2023-10-13T12:04:46;100533.25;;;16.19;100.00
36062;BME280;22123;52.412;20.970;2023-10-13T12:07:12;100561.06;;;16.34;100.00
36062;BME280;22123;52.412;20.970;2023-10-13T12:09:38;100544.34;;;16.30;100.00
36062;BME280;22123;52.412;20.970;2023-10-13T12:12:04;100566.94;;;16.44;100.00
36062;BME280;22123;52.412;20.970;2023-10-13T12:14:30;100551.44;;;16.25;100.00
36062;BME280;22123;52.412;20.970;2023-10-13T12:16:56;100523.44;;;15.97;100.00
36062;BME280;22123;52.412;20.970;2023-10-13T12:19:24;100577.16;;;16.22;100.00
36062;BME280;22123;52.412;20.970;2023-10-13T12:21:50;100532.22;;;16.13;100.00
36062;BME280;22123;52.412;20.970;2023-10-13T12:24:16;100555.00;;;16.32;100.00
36062;BME280;22123;52.412;20.970;2023-10-13T12:26:42;100524.91;;;16.20;100.00
36062;BME280;22123;52.412;20.970;2023-10-13T12:29:08;100542.66;;;16.49;100.00
36062;BME280;22123;52.412;20.970;2023-10-13T12:31:33;100488.16;;;16.31;100.00
36062;BME280;22123;52.412;20.970;2023-10-13T12:33:59;100528.06;;;16.57;100.00
36062;BME280;22123;52.412;20.970;2023-10-13T12:36:25;100473.94;;;16.36;100.00